x

Cal Poly Pier, Ca (cpxc1) Weather Station

12:22am - Thu 17th Jan 2019 All times are PST. -8 hours from GMT.

  • Wind
    29mph, 38mph gusts
  • Air Temp 60°f
  • Sea Pressure 1015.1mb
  • Cal Poly Pier, Ca
  • Cal Poly Pier, Ca

More Historic Weather Station data

Upgrade to MSW Pro to gain access to the past 30 days of data for over 8000 Wavebouys and Weather Stations around the globe.

Join

Comparision Forecast

View Surf forecast
   
Thu 01/17 12:22am 29 38 mph 1015.1mb 60f
12:12am 31 39 mph 1014.6mb 60f
12:10am 29 38 mph 1014.8mb 60f
12:08am 29 37 mph 1014.9mb 60f
12:06am 32 41 mph 1014.4mb 60f
12:04am 33 39 mph 1014.4mb 60f
12:02am 32 40 mph 1014.9mb 60f
12:00am 31 37 mph 1015.1mb 60f
Wed 01/16 11:58pm 34 41 mph 1015.3mb 60f
11:56pm 32 41 mph 1015.3mb 60f
11:54pm 33 41 mph 1014.9mb 60f
11:52pm 36 45 mph 1014.8mb 60f
11:50pm 33 38 mph 1015.3mb 60f
11:48pm 29 34 mph 1015.1mb 60f
11:46pm 32 39 mph 1015.5mb 60f
11:44pm 29 34 mph 1015.5mb 60f
11:42pm 26 33 mph 1015.8mb 60f
11:40pm 30 37 mph 1015.6mb 60f
11:38pm 31 38 mph 1015.8mb 61f
11:36pm 30 37 mph 1015.8mb 60f
11:34pm 30 38 mph 1016mb 60f
11:32pm 30 36 mph 1015.6mb 60f
11:30pm 28 36 mph 1015.8mb 60f
11:28pm 28 36 mph 1015.8mb 60f
11:26pm 29 36 mph 1016mb 60f
11:24pm 30 34 mph 1016mb 60f
11:22pm 30 37 mph 1016mb 60f
11:20pm 30 34 mph 1016.2mb 60f
11:18pm 29 36 mph 1016.2mb 60f
11:16pm 29 34 mph 1016.2mb 60f
11:14pm 26 36 mph 1016.3mb 60f
11:12pm 26 32 mph 1016.5mb 60f
11:10pm 28 34 mph 1016.3mb 60f
11:08pm 25 34 mph 1016.7mb 60f
11:06pm 28 32 mph 1016.7mb 60f
11:04pm 28 32 mph 1016.5mb 60f
11:02pm 28 32 mph 1016.5mb 60f
11:00pm 29 32 mph 1016.7mb 60f
10:58pm 28 36 mph 1016.7mb 60f
10:56pm 29 36 mph 1016.8mb 60f
10:54pm 25 31 mph 1017mb 60f
10:52pm 26 32 mph 1017mb 60f
10:50pm 24 30 mph 1017mb 60f
10:48pm 26 32 mph 1017mb 60f
10:46pm 24 31 mph 1017mb 60f
10:44pm 26 33 mph 1016.7mb 60f
10:42pm 24 30 mph 1017mb 60f
10:40pm 23 30 mph 1017.4mb 60f
10:38pm 24 32 mph 1017.4mb 60f
10:36pm 25 31 mph 1017.2mb 60f
10:34pm 24 30 mph 1017.2mb 60f
10:32pm 25 32 mph 1017.5mb 60f
10:30pm 25 32 mph 1017.2mb 60f
10:28pm 24 32 mph 1017mb 60f
10:26pm 26 33 mph 1017.4mb 60f
10:24pm 25 32 mph 1017.2mb 60f
10:22pm 25 34 mph 1017.4mb 60f
10:20pm 23 31 mph 1017.4mb 60f
10:18pm 23 30 mph 1017.5mb 60f
10:16pm 23 31 mph 1017.5mb 60f
10:14pm 23 32 mph 1017.4mb 60f
10:12pm 22 29 mph 1017.5mb 60f
10:10pm 21 29 mph 1017.4mb 60f
10:08pm 21 28 mph 1017.4mb 60f
10:06pm 21 28 mph 1017.5mb 60f
10:04pm 20 26 mph 1017.2mb 60f
10:02pm 20 29 mph 1017.5mb 60f
10:00pm 21 28 mph 1017.4mb 60f
9:50pm 22 26 mph 1017mb 60f
9:40pm 20 25 mph 1017mb 60f
9:30pm 21 25 mph 1017.2mb 60f
9:20pm 20 24 mph 1017mb 61f
9:10pm 20 22 mph 1016.8mb 61f
9:00pm 15 18 mph 1017mb 60f
8:58pm 16 20 mph 1017mb 61f
8:56pm 16 20 mph 1017.2mb 61f
8:54pm 16 21 mph 1017.2mb 61f
8:52pm 16 20 mph 1017mb 61f
8:50pm 16 20 mph 1016.8mb 61f
8:48pm 17 21 mph 1017mb 61f
8:46pm 18 22 mph 1016.8mb 61f
8:44pm 17 21 mph 1016.8mb 61f
8:42pm 17 21 mph 1016.8mb 61f
8:40pm 17 22 mph 1017mb 61f
8:38pm 18 21 mph 1017mb 61f
8:36pm 20 24 mph 1016.7mb 61f
8:34pm 20 22 mph 1016.5mb 61f
8:32pm 18 24 mph 1016.5mb 61f
8:30pm 18 22 mph 1016.7mb 61f
8:28pm 17 21 mph 1016.8mb 61f
8:26pm 17 22 mph 1017mb 61f
8:24pm 14 16 mph 1017.2mb 60f
8:22pm 13 17 mph 1017.2mb 60f
8:20pm 13 18 mph 1017.4mb 61f
8:18pm 13 15 mph 1017.2mb 60f
8:16pm 13 16 mph 1017.4mb 60f
8:14pm 13 16 mph 1017.4mb 60f
8:12pm 13 15 mph 1017.4mb 60f
8:10pm 13 16 mph 1017.4mb 60f
8:08pm 14 17 mph 1017.4mb 60f
8:06pm 14 17 mph 1017.5mb 60f
8:04pm 15 17 mph 1017.5mb 60f
8:02pm 15 18 mph 1017.5mb 60f
8:00pm 15 17 mph 1017.5mb 60f
7:58pm 14 17 mph 1017.5mb 60f
7:56pm 14 16 mph 1017.5mb 60f
7:54pm 15 18 mph 1017.5mb 60f
7:52pm 15 17 mph 1017.4mb 60f
7:50pm 15 17 mph 1017.4mb 60f
7:48pm 15 17 mph 1017.4mb 60f
7:46pm 15 16 mph 1017.4mb 60f
7:44pm 15 17 mph 1017.4mb 60f
7:42pm 15 17 mph 1017.5mb 60f
7:40pm 14 18 mph 1017.4mb 60f
7:38pm 14 16 mph 1017.4mb 60f
7:36pm 14 16 mph 1017.4mb 60f
7:34pm 14 15 mph 1017.5mb 60f
7:32pm 13 15 mph 1017.5mb 60f
7:30pm 13 16 mph 1017.4mb 60f
7:28pm 14 16 mph 1017.4mb 60f
7:26pm 15 17 mph 1017.4mb 60f
7:24pm 15 20 mph 1017.4mb 60f
7:22pm 15 20 mph 1017.4mb 60f
7:20pm 16 20 mph 1017.4mb 60f
7:18pm 16 20 mph 1017.4mb 60f
7:16pm 15 18 mph 1017.4mb 60f
7:14pm 14 17 mph 1017.4mb 60f
7:12pm 16 18 mph 1017.2mb 60f
7:10pm 16 20 mph 1017.2mb 60f
7:08pm 15 20 mph 1017.2mb 60f
7:06pm 15 18 mph 1017.2mb 60f
7:04pm 15 18 mph 1017.2mb 60f
7:02pm 15 18 mph 1017mb 60f
7:00pm 16 18 mph 1017mb 60f
6:58pm 16 18 mph 1017mb 60f
6:56pm 16 21 mph 1017mb 60f
6:54pm 16 21 mph 1016.8mb 60f
6:52pm 16 20 mph 1016.8mb 60f
6:50pm 17 21 mph 1016.8mb 60f
6:48pm 17 21 mph 1016.7mb 60f
6:46pm 18 21 mph 1016.7mb 60f
6:44pm 18 21 mph 1016.5mb 60f
6:42pm 18 22 mph 1016.5mb 60f
6:40pm 20 22 mph 1016.3mb 60f
6:38pm 18 22 mph 1016.2mb 60f
6:36pm 20 24 mph 1016.3mb 60f
6:34pm 20 23 mph 1016.3mb 60f
6:32pm 22 25 mph 1016.3mb 60f
6:30pm 21 24 mph 1016.5mb 60f
6:28pm 21 25 mph 1016.3mb 60f
6:26pm 20 22 mph 1016.7mb 60f
6:24pm 20 24 mph 1016.7mb 60f
6:22pm 18 22 mph 1016.5mb 60f
6:20pm 20 22 mph 1016.5mb 60f
6:18pm 18 22 mph 1016.5mb 60f
6:16pm 18 21 mph 1016.5mb 60f
6:14pm 18 22 mph 1016.5mb 60f
6:12pm 18 22 mph 1016.5mb 60f
6:10pm 18 22 mph 1016.5mb 60f
6:08pm 18 22 mph 1016.5mb 60f
6:06pm 17 21 mph 1016.7mb 60f
6:04pm 16 20 mph 1016.7mb 60f
6:02pm 15 17 mph 1016.8mb 60f
6:00pm 17 21 mph 1016.7mb 60f
5:58pm 20 23 mph 1016.5mb 60f
5:56pm 22 25 mph 1016.5mb 60f
5:54pm 18 23 mph 1016.3mb 60f
5:52pm 17 21 mph 1016.5mb 60f
5:50pm 17 20 mph 1016.8mb 60f
5:48pm 16 18 mph 1017mb 60f
5:46pm 16 18 mph 1017mb 60f
5:44pm 17 21 mph 1017mb 60f
5:42pm 17 20 mph 1017mb 60f
5:40pm 17 21 mph 1017mb 60f
5:38pm 17 18 mph 1017mb 60f
5:36pm 17 20 mph 1017mb 60f
5:34pm 17 18 mph 1017mb 60f
5:32pm 17 21 mph 1017mb 60f
5:30pm 17 21 mph 1016.8mb 60f
5:28pm 17 21 mph 1017mb 60f
5:26pm 16 21 mph 1017mb 60f
5:24pm 16 20 mph 1017mb 60f
5:22pm 16 20 mph 1017mb 60f
5:20pm 16 18 mph 1017mb 60f
5:18pm 15 17 mph 1017mb 60f
5:16pm 16 18 mph 1017mb 60f
5:14pm 18 21 mph 1016.8mb 60f
5:12pm 20 22 mph 1016.8mb 60f
5:10pm 20 22 mph 1016.8mb 60f
5:08pm 21 24 mph 1016.5mb 60f
5:06pm 20 22 mph 1016.7mb 60f
5:04pm 20 24 mph 1016.7mb 60f
5:02pm 20 22 mph 1016.7mb 60f
5:00pm 21 24 mph 1016.5mb 60f
4:56pm 23 28 mph 1016.7mb 60f
4:54pm 23 26 mph 1016.7mb 60f
4:52pm 24 28 mph 1016.8mb 60f
4:50pm 24 29 mph 1016.7mb 60f
4:48pm 22 28 mph 1016.8mb 60f
4:46pm 23 25 mph 1016.8mb 60f
4:44pm 22 25 mph 1016.7mb 59f
4:42pm 21 24 mph 1017mb 59f
4:40pm 20 24 mph 1017.2mb 59f
4:38pm 20 23 mph 1017mb 59f
4:36pm 20 23 mph 1017.2mb 59f
4:34pm 21 25 mph 1017.2mb 59f
4:32pm 20 25 mph 1017.2mb 59f
4:30pm 21 25 mph 1017.4mb 59f
4:28pm 18 24 mph 1017.4mb 59f
4:26pm 18 24 mph 1017.5mb 59f
4:24pm 17 23 mph 1017.5mb 59f
4:22pm 18 24 mph 1017.5mb 59f
4:20pm 17 22 mph 1017.5mb 59f
4:18pm 16 22 mph 1017.9mb 59f
4:16pm 17 24 mph 1017.7mb 59f
4:14pm 17 28 mph 1017.9mb 59f
4:12pm 17 25 mph 1017.9mb 59f
4:10pm 16 22 mph 1017.7mb 59f
4:08pm 18 25 mph 1017.9mb 59f
4:06pm 18 24 mph 1018.1mb 60f
4:04pm 18 28 mph 1017.9mb 60f
3:54pm 18 25 mph 1017.9mb 60f
3:52pm 17 24 mph 1018.1mb 60f
3:50pm 17 24 mph 1017.9mb 60f
3:48pm 16 24 mph 1017.9mb 60f
3:46pm 16 23 mph 1017.7mb 60f
3:44pm 17 22 mph 1017.7mb 60f
3:42pm 16 23 mph 1017.5mb 61f
3:40pm 16 23 mph 1017.7mb 61f
3:38pm 16 23 mph 1017.7mb 61f
3:36pm 16 25 mph 1017.5mb 61f
3:34pm 15 22 mph 1017.5mb 61f
3:32pm 14 21 mph 1017.7mb 61f
3:30pm 14 21 mph 1017.5mb 61f
3:28pm 15 22 mph 1017.7mb 61f
3:26pm 14 21 mph 1017.5mb 61f
3:24pm 13 18 mph 1017.7mb 60f
3:22pm 14 17 mph 1017.7mb 60f
3:20pm 13 17 mph 1017.7mb 60f
3:18pm 14 18 mph 1017.5mb 60f
3:16pm 13 18 mph 1017.7mb 60f
3:14pm 11 17 mph 1017.7mb 60f
3:12pm 10 15 mph 1017.5mb 60f
3:10pm 10 16 mph 1017.5mb 60f
3:08pm 11 17 mph 1017.5mb 61f
3:06pm 14 18 mph 1017.4mb 61f
3:04pm 16 20 mph 1017.4mb 61f
3:02pm 17 22 mph 1017.2mb 61f
3:00pm 18 23 mph 1017mb 61f
2:58pm 17 23 mph 1017mb 61f
2:56pm 18 24 mph 1017.2mb 61f
2:54pm 15 21 mph 1017mb 61f
2:52pm 13 18 mph 1017.2mb 61f
2:50pm 13 20 mph 1017.2mb 60f
2:48pm 10 16 mph 1017.4mb 60f
2:46pm 10 14 mph 1017.5mb 60f
2:44pm 9 13 mph 1017.4mb 60f
2:42pm 8 11 mph 1017.5mb 60f
2:40pm 10 15 mph 1017.5mb 60f
2:38pm 11 15 mph 1017.5mb 60f
2:36pm 11 15 mph 1017.5mb 60f
2:34pm 10 14 mph 1017.4mb 60f
2:32pm 9 14 mph 1017.5mb 60f
2:30pm 9 14 mph 1017.5mb 60f
2:28pm 8 14 mph 1017.5mb 60f
2:26pm 8 11 mph 1017.5mb 60f
2:24pm 8 10 mph 1017.4mb 60f
2:22pm 8 13 mph 1017.4mb 60f
2:20pm 8 11 mph 1017.4mb 60f
2:18pm 9 11 mph 1017.4mb 60f
2:16pm 9 13 mph 1017.4mb 60f
2:14pm 9 13 mph 1017.4mb 60f
2:12pm 9 10 mph 1017.4mb 60f
2:10pm 9 11 mph 1017.4mb 60f
2:08pm 9 11 mph 1017.4mb 60f
2:06pm 8 13 mph 1017.4mb 60f
2:04pm 8 11 mph 1017.4mb 60f
2:02pm 8 11 mph 1017.4mb 60f
2:00pm 8 11 mph 1017.4mb 60f
1:58pm 8 14 mph 1017.4mb 60f
1:56pm 7 13 mph 1017.4mb 60f
1:54pm 8 11 mph 1017.4mb 60f
1:52pm 8 9 mph 1017.4mb 60f
1:50pm 8 9 mph 1017.4mb 60f
1:48pm 7 8 mph 1017.5mb 60f
1:46pm 7 8 mph 1017.4mb 60f
1:44pm 7 8 mph 1017.4mb 60f
1:42pm 7 8 mph 1017.5mb 60f
1:40pm 6 7 mph 1017.5mb 60f
1:38pm 6 6 mph 1017.5mb 60f
1:36pm 6 7 mph 1017.4mb 60f
1:34pm 5 6 mph 1017.5mb 60f
1:32pm 7 8 mph 1017.5mb 60f
1:30pm 6 6 mph 1017.5mb 60f
1:28pm 6 8 mph 1017.5mb 60f
1:26pm 7 8 mph 1017.5mb 60f
1:24pm 7 8 mph 1017.5mb 60f
1:22pm 7 8 mph 1017.5mb 60f
1:20pm 7 8 mph 1017.5mb 60f
1:18pm 7 8 mph 1017.5mb 60f
1:16pm 6 8 mph 1017.5mb 60f
1:14pm 7 8 mph 1017.7mb 60f
1:12pm 7 8 mph 1017.7mb 60f
1:10pm 5 7 mph 1017.7mb 60f
1:08pm 5 6 mph 1017.7mb 60f
1:06pm 5 8 mph 1017.7mb 60f
1:04pm 7 10 mph 1017.7mb 61f
1:02pm 8 13 mph 1017.7mb 61f
1:00pm 13 15 mph 1017.7mb 61f
12:58pm 14 17 mph 1017.7mb 61f
12:56pm 16 18 mph 1017.5mb 61f
12:54pm 15 17 mph 1017.5mb 61f
12:52pm 15 17 mph 1017.5mb 61f
12:50pm 13 17 mph 1017.5mb 61f
12:48pm 11 15 mph 1017.5mb 61f
12:46pm 10 15 mph 1017.5mb 61f
12:44pm 10 14 mph 1017.5mb 61f
12:42pm 11 14 mph 1017.5mb 61f
12:40pm 14 17 mph 1017.5mb 61f
12:38pm 14 16 mph 1017.4mb 61f
12:36pm 13 15 mph 1017.5mb 61f
12:34pm 10 14 mph 1017.5mb 60f
12:32pm 10 11 mph 1017.5mb 60f
12:30pm 11 14 mph 1017.5mb 61f
12:28pm 13 15 mph 1017.5mb 61f
12:26pm 13 15 mph 1017.5mb 61f
12:24pm 13 15 mph 1017.7mb 61f
12:22pm 14 16 mph 1017.7mb 61f
12:20pm 14 17 mph 1017.9mb 61f
12:18pm 14 17 mph 1017.9mb 61f
12:16pm 11 15 mph 1018.1mb 60f
12:14pm 13 15 mph 1018.1mb 61f
12:12pm 13 15 mph 1018.2mb 61f
12:10pm 13 16 mph 1018.2mb 60f
12:08pm 11 14 mph 1018.4mb 60f
12:06pm 10 15 mph 1018.4mb 60f
12:04pm 10 14 mph 1018.4mb 60f
12:02pm 8 11 mph 1018.6mb 60f
12:00pm 9 11 mph 1018.7mb 60f
11:58am 9 13 mph 1018.7mb 60f
11:56am 10 13 mph 1018.7mb 60f
11:54am 10 14 mph 1018.9mb 61f
11:52am 10 13 mph 1018.9mb 61f
11:50am 9 13 mph 1018.9mb 61f
11:48am 8 11 mph 1018.9mb 61f
11:46am 11 17 mph 1019.1mb 61f
11:44am 10 15 mph 1019.1mb 61f
11:42am 11 15 mph 1019.1mb 61f
11:40am 10 14 mph 1019.3mb 61f
11:38am 11 16 mph 1019.3mb 61f
11:36am 14 17 mph 1019.3mb 61f
11:34am 14 16 mph 1019.4mb 61f
11:32am 14 17 mph 1019.4mb 61f
11:30am 11 15 mph 1019.6mb 61f
11:28am 6 9 mph 1019.6mb 60f
11:26am 3 6 mph 1019.6mb 60f
11:24am  -  2 mph 1019.8mb 60f
11:22am  -  2 mph 1019.8mb 60f
11:20am  -  2 mph 1019.8mb 60f
11:18am 2 5 mph 1019.8mb 60f
11:16am 3 5 mph 1019.8mb 60f
11:14am 5 8 mph 1019.8mb 60f
11:12am 6 10 mph 1019.8mb 60f
11:10am 5 10 mph 1019.8mb 60f
11:08am 5 7 mph 1019.8mb 60f
11:06am 5 6 mph 1019.8mb 60f
11:04am 5 6 mph 1019.8mb 60f
11:02am 3 8 mph 1019.8mb 60f
11:00am  -  3 mph 1019.8mb 60f
10:58am 1 2 mph 1020mb 60f
10:56am 1 2 mph 1020mb 60f
10:54am 1 2 mph 1020mb 60f
10:52am 2 2 mph 1020.1mb 60f
10:50am 2 2 mph 1020.1mb 60f
10:48am  -  2 mph 1020.1mb 60f
10:46am  -  2 mph 1020.1mb 60f
10:44am  -  2 mph 1020.1mb 61f
10:42am 1 2 mph 1020.1mb 61f
10:40am  -  1 mph 1020mb 60f
10:38am  -  1 mph 1020mb 60f
10:36am  -  1 mph 1020mb 60f
10:34am  -  1 mph 1020mb 60f
10:32am 1 2 mph 1020.1mb 60f
10:30am 1 3 mph 1020mb 60f
10:28am  -  1 mph 1020mb 60f
10:26am 1 2 mph 1020.1mb 59f
10:24am 1 2 mph 1020mb 59f
10:22am 1 3 mph 1020mb 59f
10:20am 2 3 mph 1020.1mb 59f
10:18am 2 5 mph 1020.1mb 59f
10:16am 2 5 mph 1020.1mb 59f
10:14am 3 5 mph 1020.1mb 59f
10:12am 2 5 mph 1020.1mb 60f
10:10am 3 6 mph 1020mb 60f
10:08am 2 5 mph 1020mb 60f
10:06am 2 3 mph 1020mb 60f
10:04am 1 2 mph 1020mb 61f
10:02am  -  1 mph 1019.8mb 61f
10:00am  -  2 mph 1019.8mb 61f
9:54am  -  1 mph 1019.8mb 61f
9:52am  -  1 mph 1019.8mb 61f
9:50am  -  1 mph 1019.8mb 61f
9:48am  -  1 mph 1019.6mb 60f
9:46am  -  1 mph 1019.6mb 60f
9:44am  -  1 mph 1019.6mb 60f
9:42am  -  1 mph 1019.6mb 59f
9:40am 1 2 mph 1019.4mb 59f
9:38am 2 3 mph 1019.4mb 58f
9:36am 3 5 mph 1019.3mb 58f
9:34am 5 5 mph 1019.3mb 58f
9:32am 5 6 mph 1019.1mb 58f
9:30am 5 5 mph 1019.1mb 58f
9:28am 5 5 mph 1019.1mb 58f
9:26am 5 6 mph 1019.1mb 58f
9:24am 6 6 mph 1019.1mb 58f
9:22am 6 7 mph 1019.1mb 58f
9:20am 7 8 mph 1018.9mb 58f
9:18am 8 9 mph 1018.9mb 58f
9:16am 8 9 mph 1018.7mb 57f
9:14am 8 9 mph 1018.7mb 58f
9:12am 8 9 mph 1018.9mb 58f
9:10am 7 9 mph 1018.9mb 57f
9:08am 6 8 mph 1018.9mb 57f
9:06am 3 6 mph 1018.9mb 57f
9:04am 2 5 mph 1018.9mb 57f
9:02am 5 6 mph 1018.9mb 57f
9:00am 6 9 mph 1018.7mb 57f
8:58am 7 11 mph 1018.7mb 57f
8:56am 5 6 mph 1018.6mb 56f
8:54am 3 6 mph 1018.6mb 56f
8:52am 3 6 mph 1018.6mb 56f
8:50am 6 7 mph 1018.6mb 55f
8:48am 6 7 mph 1018.4mb 55f
8:46am 6 8 mph 1018.6mb 55f
8:44am 6 7 mph 1018.6mb 55f
8:42am 6 7 mph 1018.7mb 55f
8:40am 6 6 mph 1018.7mb 54f
8:38am 6 6 mph 1018.9mb 54f
8:36am 6 7 mph 1018.9mb 54f
8:34am 6 7 mph 1018.9mb 54f
8:32am 7 8 mph 1018.9mb 54f
8:30am 6 7 mph 1018.9mb 54f
8:28am 6 7 mph 1019.1mb 54f
8:26am 6 7 mph 1019.1mb 54f
8:24am 6 7 mph 1019.1mb 54f
8:22am 6 7 mph 1019.1mb 54f
8:20am 6 7 mph 1019.1mb 54f
8:18am 7 8 mph 1019.1mb 54f
8:16am 7 8 mph 1019.1mb 54f
8:14am 6 8 mph 1019.1mb 54f
8:12am 6 7 mph 1018.9mb 54f
8:10am 7 8 mph 1018.9mb 54f
8:08am 8 9 mph 1018.7mb 53f
8:06am 8 10 mph 1018.7mb 53f
8:04am 8 10 mph 1018.7mb 53f
8:02am 10 11 mph 1018.6mb 53f
8:00am 9 11 mph 1018.6mb 53f
7:58am 8 10 mph 1018.6mb 53f
7:56am 8 9 mph 1018.6mb 53f
7:54am 6 8 mph 1018.6mb 54f
7:52am 6 8 mph 1018.7mb 54f
7:50am 5 6 mph 1018.7mb 54f
7:48am 5 7 mph 1018.7mb 54f
7:46am 5 7 mph 1018.7mb 54f
7:44am 3 6 mph 1018.7mb 54f
7:42am 2 5 mph 1018.9mb 54f
7:40am 2 6 mph 1018.9mb 54f
7:38am 5 6 mph 1018.9mb 54f
7:36am 6 6 mph 1018.9mb 54f
7:34am 6 7 mph 1018.7mb 53f
7:32am 3 6 mph 1018.7mb 54f
7:30am 2 3 mph 1018.7mb 54f
7:28am 1 2 mph 1018.7mb 54f
7:26am 2 3 mph 1018.7mb 54f
7:24am 5 8 mph 1018.7mb 54f
7:22am 6 7 mph 1018.6mb 54f
7:20am 6 8 mph 1018.7mb 53f
7:18am 7 8 mph 1018.6mb 54f
7:16am 6 8 mph 1018.6mb 54f
7:14am 2 6 mph 1018.7mb 54f
7:12am 1 2 mph 1018.7mb 54f
7:10am 2 3 mph 1018.7mb 54f
7:08am 3 6 mph 1018.7mb 54f
7:06am 5 6 mph 1018.7mb 54f
7:04am 5 6 mph 1018.7mb 54f
7:02am 6 8 mph 1018.7mb 54f
7:00am 5 8 mph 1018.7mb 54f
6:58am 6 8 mph 1018.9mb 55f
6:56am 6 8 mph 1018.9mb 55f
6:54am 2 6 mph 1018.9mb 55f
6:52am 2 2 mph 1018.9mb 55f
6:50am 2 3 mph 1018.9mb 55f
6:48am 2 3 mph 1018.9mb 55f
6:46am 2 3 mph 1018.9mb 55f
6:44am 1 3 mph 1018.9mb 55f
6:42am  -  2 mph 1018.9mb 55f
6:40am 2 5 mph 1018.9mb 55f
6:38am 2 5 mph 1018.9mb 55f
6:36am 2 5 mph 1018.9mb 55f
6:34am 2 2 mph 1018.9mb 55f
6:32am 2 5 mph 1018.9mb 55f
6:30am 2 5 mph 1018.9mb 55f
6:28am 2 6 mph 1018.9mb 55f
6:26am 2 7 mph 1018.9mb 55f
6:24am  -  1 mph 1018.9mb 55f
6:22am  -  2 mph 1018.9mb 55f
6:20am 2 5 mph 1018.9mb 55f
6:18am 3 5 mph 1018.9mb 55f
6:16am 3 5 mph 1018.9mb 55f
6:14am 3 5 mph 1018.9mb 55f
6:12am 3 5 mph 1018.9mb 55f
6:10am 2 3 mph 1018.7mb 55f
6:08am 2 3 mph 1018.9mb 55f
6:06am 3 5 mph 1018.9mb 55f
6:04am 3 5 mph 1018.9mb 55f
6:02am 3 5 mph 1018.7mb 55f
6:00am 2 5 mph 1018.7mb 55f
5:58am 2 3 mph 1018.7mb 55f
5:56am 2 3 mph 1018.7mb 55f
5:54am 2 2 mph 1018.7mb 55f
5:52am 2 3 mph 1018.7mb 55f
5:50am 2 3 mph 1018.6mb 55f
5:48am  -  2 mph 1018.7mb 55f
5:46am 2 3 mph 1018.6mb 55f
5:44am 1 2 mph 1018.6mb 56f
5:42am 1 2 mph 1018.6mb 56f
5:40am  -  1 mph 1018.6mb 56f
5:38am  -  2 mph 1018.6mb 56f
5:36am 2 3 mph 1018.4mb 56f
5:34am 2 2 mph 1018.4mb 56f
5:32am 2 2 mph 1018.4mb 56f
5:30am 2 2 mph 1018.4mb 56f
5:28am 2 2 mph 1018.6mb 56f
5:26am 2 2 mph 1018.6mb 56f
5:24am 2 3 mph 1018.6mb 56f
5:22am 2 2 mph 1018.4mb 56f
5:20am 2 2 mph 1018.4mb 56f
5:18am 2 2 mph 1018.4mb 56f
5:16am 2 2 mph 1018.4mb 56f
5:14am 1 2 mph 1018.4mb 56f
5:12am 1 2 mph 1018.4mb 57f
5:10am 1 2 mph 1018.4mb 57f
5:08am  -  2 mph 1018.4mb 57f
5:06am 2 2 mph 1018.4mb 57f
5:04am 2 3 mph 1018.4mb 57f
5:02am 2 3 mph 1018.2mb 57f
5:00am 2 3 mph 1018.2mb 57f
4:58am 3 5 mph 1018.2mb 57f
4:56am 3 5 mph 1018.2mb 57f
4:54am 3 5 mph 1018.2mb 57f
4:52am 3 5 mph 1018.2mb 57f
4:50am 5 6 mph 1018.2mb 57f
4:48am 5 6 mph 1018.2mb 57f
4:46am 5 6 mph 1018.2mb 57f
4:44am 5 6 mph 1018.1mb 57f
4:42am 5 6 mph 1018.1mb 57f
4:40am 5 6 mph 1018.2mb 57f
4:38am 5 6 mph 1018.2mb 57f
4:36am 5 6 mph 1018.2mb 57f
4:34am 5 5 mph 1018.2mb 57f
4:32am 5 5 mph 1018.2mb 57f
4:30am 5 6 mph 1018.2mb 57f
4:28am 5 6 mph 1018.2mb 57f
4:26am 5 6 mph 1018.2mb 57f
4:24am 3 5 mph 1018.4mb 57f
4:22am 3 5 mph 1018.4mb 57f
4:20am 5 6 mph 1018.4mb 57f
4:18am 5 6 mph 1018.4mb 57f
4:16am 6 7 mph 1018.2mb 57f
4:14am 7 8 mph 1018.2mb 57f
4:12am 6 8 mph 1018.2mb 57f
4:10am 6 7 mph 1018.4mb 57f
4:08am 6 8 mph 1018.4mb 57f
4:06am 7 8 mph 1018.4mb 57f
4:04am 7 9 mph 1018.2mb 57f
4:02am 6 8 mph 1018.2mb 57f
4:00am 6 8 mph 1018.2mb 57f
3:58am 6 7 mph 1018.2mb 57f
3:56am 6 8 mph 1018.4mb 56f
3:54am 5 7 mph 1018.2mb 56f
3:52am 5 6 mph 1018.2mb 56f
3:50am 5 6 mph 1018.2mb 56f
3:48am 6 7 mph 1018.2mb 56f
3:46am 6 7 mph 1018.2mb 56f
3:44am 6 7 mph 1018.4mb 57f
3:42am 6 7 mph 1018.4mb 57f
3:40am 6 6 mph 1018.4mb 57f
3:38am 5 7 mph 1018.4mb 57f
3:36am 7 9 mph 1018.2mb 57f
3:34am 8 10 mph 1018.2mb 57f
3:32am 8 10 mph 1018.2mb 57f
3:30am 7 10 mph 1018.2mb 57f
3:28am 6 7 mph 1018.2mb 57f
3:26am 5 6 mph 1018.2mb 56f
3:24am 5 6 mph 1018.2mb 56f
3:22am 5 6 mph 1018.2mb 57f
3:20am 5 6 mph 1018.2mb 57f
3:18am 3 5 mph 1018.2mb 56f
3:16am 3 5 mph 1018.2mb 56f
3:14am 3 5 mph 1018.2mb 56f
3:12am 2 5 mph 1018.2mb 56f
3:10am 3 5 mph 1018.2mb 56f
3:08am 5 6 mph 1018.1mb 56f
3:06am 5 6 mph 1018.1mb 56f
3:04am 5 6 mph 1018.1mb 56f
3:02am 5 7 mph 1018.1mb 56f
3:00am 3 5 mph 1018.1mb 56f
2:58am 3 5 mph 1018.2mb 56f
2:56am 3 5 mph 1018.2mb 56f
2:54am 5 5 mph 1018.2mb 56f
2:52am 5 6 mph 1018.1mb 56f
2:50am 5 6 mph 1018.1mb 56f
2:48am 6 6 mph 1018.1mb 56f
2:46am 6 7 mph 1018.1mb 56f
2:44am 2 5 mph 1018.1mb 56f
2:42am 2 5 mph 1018.1mb 56f
2:40am 3 5 mph 1018.1mb 56f
2:38am 2 3 mph 1018.1mb 56f
2:36am 3 5 mph 1018.1mb 56f
2:34am 3 6 mph 1018.1mb 56f
2:32am 2 2 mph 1018.2mb 56f
2:30am 2 2 mph 1018.2mb 56f
2:28am 3 5 mph 1018.2mb 56f
2:26am 6 8 mph 1018.2mb 56f
2:24am 5 6 mph 1018.2mb 56f
2:22am 3 5 mph 1018.4mb 56f
2:20am 3 6 mph 1018.4mb 56f
2:18am 2 3 mph 1018.2mb 56f
2:16am 3 5 mph 1018.2mb 56f
2:14am 3 6 mph 1018.4mb 56f
2:12am 5 7 mph 1018.2mb 56f
2:10am 5 6 mph 1018.2mb 56f
2:08am 3 5 mph 1018.1mb 56f
2:06am 5 6 mph 1018.1mb 56f
2:04am 5 6 mph 1018.1mb 56f
2:02am 5 6 mph 1017.9mb 56f
2:00am 6 7 mph 1017.7mb 56f
1:58am 6 7 mph 1017.7mb 56f
1:56am 6 8 mph 1017.7mb 56f
1:54am 6 8 mph 1017.7mb 56f
1:52am 6 8 mph 1017.5mb 56f
1:50am 7 8 mph 1017.5mb 56f
1:48am 7 8 mph 1017.5mb 56f
1:46am 5 8 mph 1017.5mb 56f
1:44am 5 6 mph 1017.7mb 56f
1:42am 6 8 mph 1017.7mb 56f
1:40am 6 8 mph 1017.7mb 56f
1:38am 7 8 mph 1017.7mb 56f
1:36am 8 8 mph 1017.7mb 56f
1:34am 9 10 mph 1017.7mb 56f
1:32am 9 10 mph 1017.7mb 56f
1:30am 8 10 mph 1017.7mb 56f
1:28am 6 8 mph 1017.7mb 56f
1:26am 5 7 mph 1017.7mb 56f
1:24am 5 6 mph 1017.7mb 56f
1:22am 5 6 mph 1017.7mb 56f
1:20am 5 6 mph 1017.7mb 56f
1:18am 3 5 mph 1017.7mb 56f
1:16am 2 5 mph 1017.7mb 56f
1:14am 3 5 mph 1017.7mb 56f
1:12am 2 3 mph 1017.7mb 56f
1:10am 2 3 mph 1017.7mb 56f
1:08am 2 2 mph 1017.5mb 56f
1:06am 3 5 mph 1017.5mb 56f
1:04am 2 3 mph 1017.5mb 56f
1:02am 2 2 mph 1017.5mb 56f
1:00am 2 3 mph 1017.7mb 56f
12:58am 3 3 mph 1017.5mb 56f
12:56am 5 6 mph 1017.7mb 56f
12:54am 5 6 mph 1017.5mb 56f
12:52am 6 6 mph 1017.5mb 56f
12:50am 6 7 mph 1017.5mb 56f
12:48am 6 8 mph 1017.5mb 56f
12:46am 6 8 mph 1017.5mb 56f
12:44am 7 8 mph 1017.5mb 56f
12:42am 7 8 mph 1017.5mb 56f
12:40am 7 9 mph 1017.5mb 56f
12:38am 7 8 mph 1017.4mb 56f
12:36am 7 8 mph 1017.4mb 56f
12:34am 7 8 mph 1017.4mb 56f
12:32am 7 9 mph 1017.4mb 56f
12:30am 6 8 mph 1017.4mb 56f
12:28am 8 10 mph 1017.4mb 56f
12:26am 7 8 mph 1017.4mb 56f
12:24am 8 10 mph 1017.4mb 56f
12:22am 8 10 mph 1017.4mb 56f
12:20am 8 10 mph 1017.4mb 56f
12:18am 7 9 mph 1017.4mb 56f
12:16am 8 10 mph 1017.4mb 56f
12:14am 8 11 mph 1017.2mb 56f
12:12am 7 10 mph 1017.2mb 56f
12:10am 8 11 mph 1017.2mb 56f
12:08am 7 10 mph 1017.2mb 56f
12:06am 7 8 mph 1017.4mb 56f
12:04am 7 8 mph 1017.4mb 56f
12:02am 6 7 mph 1017.4mb 56f
12:00am 6 8 mph 1017.4mb 56f
Tue 01/15 11:58pm 6 8 mph 1017.4mb 56f
11:56pm 6 8 mph 1017.4mb 56f
11:54pm 6 9 mph 1017.4mb 56f
11:52pm 10 13 mph 1017.4mb 56f
11:50pm 9 11 mph 1017.2mb 56f
11:48pm 9 11 mph 1017.2mb 56f
11:46pm 10 11 mph 1017.2mb 56f
11:44pm 10 11 mph 1017.2mb 56f
11:42pm 9 10 mph 1017mb 56f
11:40pm 9 10 mph 1017mb 56f
11:38pm 10 13 mph 1017mb 56f
11:36pm 10 13 mph 1017mb 56f
11:34pm 9 11 mph 1017mb 56f
11:32pm 9 11 mph 1017mb 56f
11:30pm 10 11 mph 1016.8mb 57f
11:28pm 10 11 mph 1016.8mb 57f
11:26pm 10 13 mph 1016.8mb 57f
11:24pm 11 13 mph 1016.8mb 57f
11:22pm 10 13 mph 1016.8mb 57f
11:20pm 9 10 mph 1016.8mb 57f
11:18pm 10 11 mph 1016.8mb 57f
11:16pm 10 13 mph 1016.8mb 57f
11:14pm 10 11 mph 1016.8mb 57f
11:12pm 10 11 mph 1016.8mb 57f
11:10pm 10 13 mph 1016.8mb 57f
11:08pm 11 14 mph 1016.8mb 57f
11:06pm 11 13 mph 1016.7mb 57f
11:04pm 10 13 mph 1016.7mb 57f
11:02pm 10 13 mph 1016.7mb 57f
11:00pm 10 13 mph 1016.7mb 57f
10:58pm 10 11 mph 1016.7mb 57f
10:56pm 10 11 mph 1016.7mb 57f
10:54pm 9 10 mph 1016.7mb 57f
10:52pm 10 11 mph 1016.7mb 57f
10:50pm 10 11 mph 1016.8mb 57f
10:48pm 10 13 mph 1016.7mb 57f
10:46pm 10 13 mph 1016.7mb 57f
10:44pm 11 14 mph 1016.7mb 57f
10:42pm 11 15 mph 1016.7mb 57f
10:40pm 14 15 mph 1016.7mb 57f
10:38pm 14 16 mph 1016.5mb 57f
10:36pm 14 16 mph 1016.5mb 57f
10:34pm 13 16 mph 1016.5mb 58f
10:32pm 15 17 mph 1016.5mb 58f
10:30pm 13 17 mph 1016.5mb 57f
10:28pm 11 15 mph 1016.5mb 58f
10:26pm 13 15 mph 1016.7mb 58f
10:24pm 13 15 mph 1016.7mb 58f
10:22pm 13 14 mph 1016.7mb 57f
10:20pm 14 15 mph 1016.5mb 57f
10:18pm 13 14 mph 1016.5mb 57f
10:16pm 13 15 mph 1016.5mb 57f
10:14pm 13 15 mph 1016.5mb 57f
10:12pm 14 15 mph 1016.5mb 57f
10:10pm 14 15 mph 1016.5mb 57f
10:08pm 13 15 mph 1016.3mb 57f
10:06pm 14 16 mph 1016.3mb 57f
10:04pm 14 16 mph 1016.3mb 57f
10:02pm 15 17 mph 1016.3mb 57f
10:00pm 16 18 mph 1016.3mb 57f
9:58pm 16 18 mph 1016.3mb 57f
9:56pm 15 17 mph 1016.2mb 57f
9:54pm 16 18 mph 1016.2mb 57f
9:52pm 15 18 mph 1016.2mb 57f
9:50pm 16 18 mph 1016.3mb 57f
9:48pm 16 18 mph 1016.2mb 57f
9:46pm 17 20 mph 1016.2mb 57f
9:44pm 18 21 mph 1016mb 57f
9:42pm 18 21 mph 1015.8mb 57f
9:40pm 18 23 mph 1016mb 57f
9:38pm 20 22 mph 1015.8mb 58f
9:36pm 20 22 mph 1015.6mb 57f
9:34pm 18 21 mph 1015.6mb 57f
9:32pm 18 21 mph 1015.6mb 57f
9:30pm 16 21 mph 1015.6mb 57f
9:28pm 17 21 mph 1015.6mb 57f
9:26pm 16 20 mph 1015.8mb 57f
9:24pm 17 21 mph 1015.6mb 57f
9:22pm 17 20 mph 1015.6mb 57f
9:20pm 16 18 mph 1015.6mb 57f
9:18pm 15 18 mph 1015.8mb 57f
9:16pm 16 17 mph 1015.6mb 57f
9:14pm 14 17 mph 1015.8mb 57f
9:12pm 14 16 mph 1015.8mb 57f
9:10pm 13 15 mph 1015.6mb 56f
9:08pm 11 15 mph 1015.6mb 56f
9:06pm 10 11 mph 1015.8mb 56f
9:04pm 10 13 mph 1015.6mb 56f
9:02pm 11 15 mph 1015.6mb 56f
9:00pm 14 16 mph 1015.6mb 56f
8:58pm 14 17 mph 1015.6mb 57f
8:56pm 15 21 mph 1015.8mb 57f
8:54pm 16 21 mph 1015.8mb 57f
8:52pm 17 21 mph 1015.6mb 57f
8:50pm 16 20 mph 1015.5mb 57f
8:48pm 16 20 mph 1015.3mb 58f
8:46pm 18 21 mph 1015.5mb 58f
8:44pm 17 21 mph 1015.3mb 58f
8:42pm 18 22 mph 1015.1mb 58f
8:40pm 18 21 mph 1014.9mb 58f
8:38pm 17 20 mph 1015.1mb 58f
8:36pm 17 22 mph 1015.3mb 58f
8:34pm 16 21 mph 1015.1mb 58f
8:32pm 16 21 mph 1015.3mb 58f
8:30pm 10 16 mph 1015.3mb 58f
8:28pm 8 11 mph 1015.3mb 57f
8:26pm 9 13 mph 1015.5mb 57f
8:24pm 13 17 mph 1015.5mb 57f
8:22pm 18 22 mph 1015.3mb 57f
8:20pm 16 21 mph 1015.1mb 57f
8:18pm 14 21 mph 1015.3mb 57f
8:16pm 17 23 mph 1015.3mb 57f
8:14pm 16 20 mph 1015.3mb 57f
8:12pm 15 18 mph 1015.1mb 57f
8:10pm 15 18 mph 1015.3mb 57f
8:08pm 15 20 mph 1015.3mb 57f
8:06pm 16 21 mph 1015.3mb 57f
8:04pm 15 20 mph 1014.9mb 57f
8:02pm 17 21 mph 1014.9mb 57f
8:00pm 14 21 mph 1015.1mb 57f
7:58pm 14 21 mph 1014.9mb 56f
7:56pm 14 17 mph 1014.9mb 56f
7:54pm 15 21 mph 1014.9mb 56f
7:52pm 15 22 mph 1014.8mb 56f
7:50pm 11 17 mph 1014.9mb 56f
7:48pm 11 17 mph 1014.9mb 56f
7:46pm 14 18 mph 1014.9mb 56f
7:44pm 16 21 mph 1014.9mb 56f
7:42pm 15 22 mph 1014.9mb 56f
7:40pm 15 21 mph 1014.9mb 57f
7:38pm 15 22 mph 1014.8mb 57f
7:36pm 15 21 mph 1014.8mb 57f
7:34pm 13 22 mph 1014.8mb 57f
7:32pm 15 21 mph 1014.8mb 57f
7:30pm 14 20 mph 1014.6mb 57f
7:28pm 11 16 mph 1014.6mb 57f
7:26pm 11 16 mph 1014.6mb 57f
7:24pm 11 17 mph 1014.6mb 57f
7:22pm 13 18 mph 1014.4mb 57f
7:20pm 13 18 mph 1014.6mb 57f
7:18pm 14 21 mph 1014.6mb 57f
7:16pm 14 21 mph 1014.6mb 57f
7:14pm 14 20 mph 1014.6mb 57f
7:12pm 13 18 mph 1014.4mb 57f
7:10pm 14 20 mph 1014.4mb 57f
7:08pm 15 21 mph 1014.4mb 57f
7:06pm 14 21 mph 1014.3mb 57f
7:04pm 15 21 mph 1014.3mb 57f
7:02pm 15 21 mph 1014.3mb 56f
7:00pm 14 20 mph 1014.3mb 56f
6:58pm 15 22 mph 1014.3mb 57f
6:56pm 15 21 mph 1014.1mb 57f
6:54pm 14 21 mph 1014.3mb 57f
6:52pm 14 18 mph 1014.1mb 57f
6:50pm 16 22 mph 1014.1mb 57f
6:48pm 17 24 mph 1013.9mb 57f
6:46pm 18 24 mph 1013.9mb 57f
6:44pm 14 18 mph 1013.9mb 57f
6:42pm 14 17 mph 1013.9mb 57f
6:40pm 15 18 mph 1013.7mb 57f
6:38pm 17 21 mph 1013.6mb 57f
6:36pm 18 22 mph 1013.7mb 57f
6:34pm 18 22 mph 1013.6mb 56f
6:32pm 21 24 mph 1013.6mb 56f
6:30pm 18 22 mph 1013.4mb 56f
6:28pm 14 20 mph 1013.4mb 56f
6:26pm 15 21 mph 1013.4mb 56f
6:24pm 16 21 mph 1013.4mb 56f
6:22pm 17 21 mph 1013.4mb 56f
6:20pm 15 20 mph 1013.4mb 56f
6:18pm 17 22 mph 1013mb 56f
6:16pm 18 24 mph 1013.2mb 56f
6:14pm 18 23 mph 1013.2mb 56f
6:12pm 22 25 mph 1012.9mb 56f
6:10pm 22 26 mph 1013mb 56f
6:08pm 23 25 mph 1012.7mb 56f
6:06pm 23 26 mph 1012.7mb 56f
6:04pm 25 29 mph 1012.7mb 56f
6:02pm 26 31 mph 1012.5mb 56f
6:00pm 26 32 mph 1012mb 56f
5:58pm 26 32 mph 1012.4mb 56f
5:56pm 26 30 mph 1012.2mb 56f
5:54pm 26 30 mph 1012.2mb 56f
5:52pm 25 29 mph 1012mb 56f
5:50pm 25 29 mph 1012.2mb 56f
5:48pm 29 34 mph 1012mb 56f
5:46pm 29 32 mph 1011.8mb 56f
5:44pm 26 31 mph 1011.8mb 56f
5:42pm 29 32 mph 1012mb 57f
5:40pm 24 30 mph 1012mb 57f
5:38pm 25 29 mph 1012.2mb 57f
5:36pm 25 30 mph 1012mb 57f
5:34pm 29 33 mph 1011.8mb 57f
5:32pm 29 33 mph 1011.7mb 57f
5:30pm 28 34 mph 1011.5mb 57f
5:28pm 24 28 mph 1011.8mb 57f
5:26pm 25 31 mph 1011.7mb 57f
5:24pm 28 32 mph 1011.8mb 57f
5:22pm 31 34 mph 1011.5mb 57f
5:20pm 28 33 mph 1011.5mb 57f
5:18pm 25 29 mph 1011.1mb 57f
5:16pm 23 29 mph 1011.5mb 57f
5:14pm 23 28 mph 1011.5mb 57f
5:12pm 24 31 mph 1011.5mb 57f
5:10pm 25 29 mph 1011.1mb 57f
5:08pm 28 31 mph 1011.5mb 57f
5:06pm 25 29 mph 1011.3mb 57f
5:04pm 25 33 mph 1011.5mb 57f
5:02pm 24 29 mph 1011.3mb 57f
5:00pm 24 29 mph 1011.3mb 57f
4:58pm 26 32 mph 1011.3mb 57f
4:56pm 29 33 mph 1011.1mb 57f
4:54pm 23 31 mph 1011.1mb 57f
4:52pm 23 28 mph 1011.1mb 57f
4:50pm 24 30 mph 1011.3mb 57f
4:48pm 23 28 mph 1011.1mb 57f
4:46pm 23 25 mph 1011.1mb 57f
4:44pm 23 28 mph 1011mb 57f
4:42pm 29 33 mph 1011mb 57f
4:40pm 26 32 mph 1010.8mb 57f
4:38pm 25 30 mph 1011mb 57f
4:36pm 20 26 mph 1011mb 57f
4:34pm 21 24 mph 1011.1mb 57f
4:32pm 21 26 mph 1011mb 57f
4:30pm 21 25 mph 1011mb 57f
4:28pm 22 26 mph 1010.8mb 57f
4:26pm 20 23 mph 1010.6mb 57f
4:24pm 23 26 mph 1011mb 57f
4:22pm 24 29 mph 1011mb 57f
4:20pm 24 28 mph 1010.8mb 56f
4:18pm 23 29 mph 1010.8mb 56f
4:16pm 24 32 mph 1010.8mb 57f
4:14pm 28 32 mph 1010.3mb 57f
4:12pm 24 29 mph 1010.5mb 57f
4:10pm 24 28 mph 1010.3mb 57f
4:08pm 25 32 mph 1010.5mb 57f
4:06pm 24 29 mph 1010.1mb 57f
4:04pm 25 31 mph 1010.5mb 57f
3:56pm 29 34 mph 1010.1mb 57f
3:54pm 25 31 mph 1009.9mb 57f
3:52pm 24 29 mph 1010.1mb 57f
3:50pm 26 31 mph 1010.3mb 57f
3:48pm 22 29 mph 1010.1mb 56f
3:46pm 23 29 mph 1010.5mb 56f
3:44pm 23 29 mph 1010.3mb 56f
3:42pm 25 30 mph 1010.3mb 57f
3:40pm 24 30 mph 1010.1mb 56f
3:38pm 25 32 mph 1009.9mb 56f
3:36pm 26 32 mph 1010.1mb 56f
3:34pm 25 29 mph 1009.9mb 56f
3:32pm 26 31 mph 1010.3mb 56f
3:30pm 24 29 mph 1009.8mb 56f
3:28pm 26 31 mph 1010.1mb 56f
3:26pm 29 33 mph 1009.8mb 56f
3:24pm 26 31 mph 1009.8mb 56f
3:22pm 30 33 mph 1009.8mb 56f
3:20pm 30 36 mph 1009.6mb 56f
3:18pm 29 37 mph 1009.4mb 55f
3:16pm 28 34 mph 1009.8mb 55f
3:14pm 28 34 mph 1009.6mb 56f
3:12pm 29 32 mph 1009.8mb 56f
3:10pm 29 36 mph 1009.8mb 56f
3:08pm 26 30 mph 1009.6mb 56f
3:06pm 26 30 mph 1009.9mb 56f
3:04pm 22 26 mph 1009.6mb 56f
3:02pm 21 24 mph 1009.9mb 56f
3:00pm 20 24 mph 1010.1mb 56f
2:58pm 21 25 mph 1010.1mb 56f
2:56pm 17 21 mph 1010.3mb 56f
2:54pm 20 28 mph 1010.3mb 56f
2:52pm 17 21 mph 1010.3mb 56f
2:50pm 18 22 mph 1010.3mb 56f
2:48pm 20 23 mph 1010.1mb 56f
2:46pm 22 28 mph 1010.1mb 56f
2:44pm 22 24 mph 1010.1mb 56f
2:42pm 22 25 mph 1010.1mb 56f
2:40pm 24 30 mph 1010.1mb 56f
2:38pm 24 28 mph 1009.8mb 56f
2:36pm 25 31 mph 1010.1mb 56f
2:34pm 29 33 mph 1010.1mb 56f
2:32pm 24 30 mph 1010.1mb 56f
2:30pm 28 32 mph 1010.1mb 56f
2:28pm 26 32 mph 1010.1mb 56f
2:26pm 26 31 mph 1009.9mb 56f
2:24pm 24 29 mph 1009.8mb 56f
2:22pm 25 29 mph 1009.9mb 56f
2:20pm 25 32 mph 1009.8mb 56f
2:18pm 22 28 mph 1009.8mb 56f
2:16pm 21 28 mph 1009.9mb 56f
2:14pm 18 22 mph 1010.1mb 56f
2:12pm 20 24 mph 1010.1mb 56f
2:10pm 22 24 mph 1010.1mb 56f
2:08pm 22 25 mph 1009.9mb 56f
2:06pm 23 29 mph 1009.9mb 56f
2:04pm 24 29 mph 1009.8mb 56f
2:02pm 23 26 mph 1009.9mb 56f
2:00pm 28 34 mph 1009.9mb 56f
1:58pm 28 32 mph 1009.4mb 56f
1:56pm 28 33 mph 1009.6mb 56f
1:54pm 26 34 mph 1009.9mb 56f
1:52pm 26 33 mph 1009.8mb 56f
1:50pm 30 36 mph 1010.1mb 56f
1:48pm 29 34 mph 1009.9mb 56f